sensor_id;sensor_type;location;lat;lon;timestamp;temperature;humidity
21387;DHT22;10854;45.922;6.716;2023-10-13T00:00:42;12.20;76.50
21387;DHT22;10854;45.922;6.716;2023-10-13T00:03:11;12.30;76.10
21387;DHT22;10854;45.922;6.716;2023-10-13T00:05:46;12.30;75.90
21387;DHT22;10854;45.922;6.716;2023-10-13T00:08:15;12.30;75.20
21387;DHT22;10854;45.922;6.716;2023-10-13T00:10:45;12.30;74.60
21387;DHT22;10854;45.922;6.716;2023-10-13T00:13:16;12.50;73.90
21387;DHT22;10854;45.922;6.716;2023-10-13T00:15:48;12.60;73.30
21387;DHT22;10854;45.922;6.716;2023-10-13T00:18:30;12.70;73.50
21387;DHT22;10854;45.922;6.716;2023-10-13T00:21:02;12.80;73.90
21387;DHT22;10854;45.922;6.716;2023-10-13T00:23:43;12.70;73.80
21387;DHT22;10854;45.922;6.716;2023-10-13T00:26:27;12.60;74.00
21387;DHT22;10854;45.922;6.716;2023-10-13T00:29:00;12.40;74.90
21387;DHT22;10854;45.922;6.716;2023-10-13T00:31:37;12.20;74.40
21387;DHT22;10854;45.922;6.716;2023-10-13T00:34:10;12.10;74.90
21387;DHT22;10854;45.922;6.716;2023-10-13T00:36:41;12.00;75.40
21387;DHT22;10854;45.922;6.716;2023-10-13T00:39:28;11.90;76.00
21387;DHT22;10854;45.922;6.716;2023-10-13T00:41:57;11.90;76.70
21387;DHT22;10854;45.922;6.716;2023-10-13T00:44:27;11.90;76.70
21387;DHT22;10854;45.922;6.716;2023-10-13T00:47:12;11.90;76.70
21387;DHT22;10854;45.922;6.716;2023-10-13T00:50:16;11.80;76.60
21387;DHT22;10854;45.922;6.716;2023-10-13T00:52:48;11.70;76.80
21387;DHT22;10854;45.922;6.716;2023-10-13T00:55:19;11.50;77.00
21387;DHT22;10854;45.922;6.716;2023-10-13T00:57:54;11.40;77.40
21387;DHT22;10854;45.922;6.716;2023-10-13T01:00:25;11.40;77.90
21387;DHT22;10854;45.922;6.716;2023-10-13T01:02:56;11.30;78.10
21387;DHT22;10854;45.922;6.716;2023-10-13T01:05:25;11.20;78.30
21387;DHT22;10854;45.922;6.716;2023-10-13T01:07:54;11.10;78.60
21387;DHT22;10854;45.922;6.716;2023-10-13T01:10:23;10.90;79.00
21387;DHT22;10854;45.922;6.716;2023-10-13T01:12:55;10.80;79.50
21387;DHT22;10854;45.922;6.716;2023-10-13T01:15:24;10.70;79.50
21387;DHT22;10854;45.922;6.716;2023-10-13T01:18:10;10.60;80.20
21387;DHT22;10854;45.922;6.716;2023-10-13T01:20:40;10.50;80.70
21387;DHT22;10854;45.922;6.716;2023-10-13T01:23:20;10.40;80.90
21387;DHT22;10854;45.922;6.716;2023-10-13T01:25:52;10.40;81.50
21387;DHT22;10854;45.922;6.716;2023-10-13T01:28:22;10.30;82.00
21387;DHT22;10854;45.922;6.716;2023-10-13T01:30:52;10.20;81.90
21387;DHT22;10854;45.922;6.716;2023-10-13T01:33:21;10.20;82.30
21387;DHT22;10854;45.922;6.716;2023-10-13T01:35:57;10.10;82.70
21387;DHT22;10854;45.922;6.716;2023-10-13T01:38:27;10.10;83.00
21387;DHT22;10854;45.922;6.716;2023-10-13T01:40:56;10.00;83.20
21387;DHT22;10854;45.922;6.716;2023-10-13T01:43:28;10.00;83.50
21387;DHT22;10854;45.922;6.716;2023-10-13T01:45:56;10.00;83.60
21387;DHT22;10854;45.922;6.716;2023-10-13T01:48:26;9.90;84.80
21387;DHT22;10854;45.922;6.716;2023-10-13T01:50:56;9.90;85.30
21387;DHT22;10854;45.922;6.716;2023-10-13T01:53:27;9.90;84.90
21387;DHT22;10854;45.922;6.716;2023-10-13T01:55:56;10.10;83.20
21387;DHT22;10854;45.922;6.716;2023-10-13T01:58:25;10.30;82.60
21387;DHT22;10854;45.922;6.716;2023-10-13T02:00:57;10.50;81.60
21387;DHT22;10854;45.922;6.716;2023-10-13T02:03:27;10.80;80.30
21387;DHT22;10854;45.922;6.716;2023-10-13T02:05:58;11.00;79.00
21387;DHT22;10854;45.922;6.716;2023-10-13T02:08:33;11.20;78.10
21387;DHT22;10854;45.922;6.716;2023-10-13T02:11:07;11.40;77.20
21387;DHT22;10854;45.922;6.716;2023-10-13T02:13:36;11.50;76.30
21387;DHT22;10854;45.922;6.716;2023-10-13T02:16:16;11.60;75.80
21387;DHT22;10854;45.922;6.716;2023-10-13T02:18:50;11.70;74.90
21387;DHT22;10854;45.922;6.716;2023-10-13T02:21:19;11.80;74.30
21387;DHT22;10854;45.922;6.716;2023-10-13T02:23:48;11.90;73.80
21387;DHT22;10854;45.922;6.716;2023-10-13T02:26:30;11.90;73.10
21387;DHT22;10854;45.922;6.716;2023-10-13T02:29:00;12.10;72.50
21387;DHT22;10854;45.922;6.716;2023-10-13T02:31:47;12.20;71.90
21387;DHT22;10854;45.922;6.716;2023-10-13T02:34:23;12.30;71.30
21387;DHT22;10854;45.922;6.716;2023-10-13T02:36:51;12.30;71.20
21387;DHT22;10854;45.922;6.716;2023-10-13T02:39:22;12.30;71.40
21387;DHT22;10854;45.922;6.716;2023-10-13T02:41:54;12.20;71.90
21387;DHT22;10854;45.922;6.716;2023-10-13T02:44:24;12.00;72.40
21387;DHT22;10854;45.922;6.716;2023-10-13T02:46:59;11.80;73.10
21387;DHT22;10854;45.922;6.716;2023-10-13T02:49:28;11.60;73.90
21387;DHT22;10854;45.922;6.716;2023-10-13T02:52:02;11.30;74.40
21387;DHT22;10854;45.922;6.716;2023-10-13T02:54:36;11.20;75.10
21387;DHT22;10854;45.922;6.716;2023-10-13T02:57:15;11.00;75.70
21387;DHT22;10854;45.922;6.716;2023-10-13T02:59:44;10.90;76.10
21387;DHT22;10854;45.922;6.716;2023-10-13T03:02:16;10.90;75.70
21387;DHT22;10854;45.922;6.716;2023-10-13T03:04:57;10.90;75.30
21387;DHT22;10854;45.922;6.716;2023-10-13T03:07:29;11.00;75.10
21387;DHT22;10854;45.922;6.716;2023-10-13T03:09:59;11.10;74.90
21387;DHT22;10854;45.922;6.716;2023-10-13T03:12:38;11.10;74.80
21387;DHT22;10854;45.922;6.716;2023-10-13T03:15:08;11.10;75.20
21387;DHT22;10854;45.922;6.716;2023-10-13T03:17:39;11.00;75.80
21387;DHT22;10854;45.922;6.716;2023-10-13T03:20:13;10.80;76.00
21387;DHT22;10854;45.922;6.716;2023-10-13T03:22:43;10.60;76.30
21387;DHT22;10854;45.922;6.716;2023-10-13T03:25:15;10.50;76.90
21387;DHT22;10854;45.922;6.716;2023-10-13T03:28:06;10.40;77.50
21387;DHT22;10854;45.922;6.716;2023-10-13T03:30:35;10.20;77.90
21387;DHT22;10854;45.922;6.716;2023-10-13T03:33:06;10.10;78.40
21387;DHT22;10854;45.922;6.716;2023-10-13T03:35:36;10.00;78.70
21387;DHT22;10854;45.922;6.716;2023-10-13T03:38:13;10.00;79.50
21387;DHT22;10854;45.922;6.716;2023-10-13T03:40:51;9.90;80.90
21387;DHT22;10854;45.922;6.716;2023-10-13T03:43:51;9.80;81.20
21387;DHT22;10854;45.922;6.716;2023-10-13T03:46:35;9.80;81.50
21387;DHT22;10854;45.922;6.716;2023-10-13T03:49:09;9.60;81.60
21387;DHT22;10854;45.922;6.716;2023-10-13T03:51:40;9.60;81.60
21387;DHT22;10854;45.922;6.716;2023-10-13T03:54:09;9.60;81.80
21387;DHT22;10854;45.922;6.716;2023-10-13T03:56:37;9.60;82.10
21387;DHT22;10854;45.922;6.716;2023-10-13T03:59:13;9.60;82.00
21387;DHT22;10854;45.922;6.716;2023-10-13T04:01:48;9.80;81.30
21387;DHT22;10854;45.922;6.716;2023-10-13T04:04:18;10.10;78.80
21387;DHT22;10854;45.922;6.716;2023-10-13T04:07:05;10.30;78.00
21387;DHT22;10854;45.922;6.716;2023-10-13T04:09:35;10.60;77.20
21387;DHT22;10854;45.922;6.716;2023-10-13T04:12:15;10.70;76.50
21387;DHT22;10854;45.922;6.716;2023-10-13T04:15:07;10.70;76.30
21387;DHT22;10854;45.922;6.716;2023-10-13T04:17:50;10.70;76.40
21387;DHT22;10854;45.922;6.716;2023-10-13T04:20:19;10.60;76.50
21387;DHT22;10854;45.922;6.716;2023-10-13T04:23:01;10.50;76.80
21387;DHT22;10854;45.922;6.716;2023-10-13T04:25:29;10.50;77.00
21387;DHT22;10854;45.922;6.716;2023-10-13T04:30:50;10.40;77.10
21387;DHT22;10854;45.922;6.716;2023-10-13T04:33:27;10.40;77.50
21387;DHT22;10854;45.922;6.716;2023-10-13T04:38:58;10.20;78.30
21387;DHT22;10854;45.922;6.716;2023-10-13T04:41:38;10.00;78.70
21387;DHT22;10854;45.922;6.716;2023-10-13T04:44:15;9.80;80.70
21387;DHT22;10854;45.922;6.716;2023-10-13T04:47:02;9.80;80.80
21387;DHT22;10854;45.922;6.716;2023-10-13T04:49:32;9.70;81.10
21387;DHT22;10854;45.922;6.716;2023-10-13T04:52:18;9.60;81.30
21387;DHT22;10854;45.922;6.716;2023-10-13T04:55:06;9.60;81.60
21387;DHT22;10854;45.922;6.716;2023-10-13T04:57:59;9.60;81.40
21387;DHT22;10854;45.922;6.716;2023-10-13T05:00:59;9.70;80.60
21387;DHT22;10854;45.922;6.716;2023-10-13T05:04:00;10.00;78.60
21387;DHT22;10854;45.922;6.716;2023-10-13T05:06:46;10.30;77.10
21387;DHT22;10854;45.922;6.716;2023-10-13T05:09:16;10.60;75.60
21387;DHT22;10854;45.922;6.716;2023-10-13T05:12:03;10.90;74.30
21387;DHT22;10854;45.922;6.716;2023-10-13T05:14:50;11.10;73.30
21387;DHT22;10854;45.922;6.716;2023-10-13T05:17:37;11.40;72.50
21387;DHT22;10854;45.922;6.716;2023-10-13T05:20:23;11.50;72.00
21387;DHT22;10854;45.922;6.716;2023-10-13T05:23:10;11.50;71.80
21387;DHT22;10854;45.922;6.716;2023-10-13T05:26:01;11.50;72.20
21387;DHT22;10854;45.922;6.716;2023-10-13T05:28:49;11.40;72.40
21387;DHT22;10854;45.922;6.716;2023-10-13T05:31:45;11.30;73.00
21387;DHT22;10854;45.922;6.716;2023-10-13T05:34:32;11.20;73.60
21387;DHT22;10854;45.922;6.716;2023-10-13T05:37:19;11.10;73.80
21387;DHT22;10854;45.922;6.716;2023-10-13T05:40:07;10.90;73.90
21387;DHT22;10854;45.922;6.716;2023-10-13T05:42:57;10.80;74.00
21387;DHT22;10854;45.922;6.716;2023-10-13T05:45:44;10.70;74.30
21387;DHT22;10854;45.922;6.716;2023-10-13T05:48:32;10.60;74.90
21387;DHT22;10854;45.922;6.716;2023-10-13T05:51:31;10.50;75.20
21387;DHT22;10854;45.922;6.716;2023-10-13T05:54:16;10.40;75.80
21387;DHT22;10854;45.922;6.716;2023-10-13T05:56:52;10.30;76.00
21387;DHT22;10854;45.922;6.716;2023-10-13T05:59:39;10.40;76.10
21387;DHT22;10854;45.922;6.716;2023-10-13T06:02:26;10.40;76.10
21387;DHT22;10854;45.922;6.716;2023-10-13T06:05:16;10.50;76.20
21387;DHT22;10854;45.922;6.716;2023-10-13T06:08:03;10.60;76.10
21387;DHT22;10854;45.922;6.716;2023-10-13T06:10:50;10.50;75.90
21387;DHT22;10854;45.922;6.716;2023-10-13T06:13:47;10.40;76.10
21387;DHT22;10854;45.922;6.716;2023-10-13T06:16:35;10.40;76.20
21387;DHT22;10854;45.922;6.716;2023-10-13T06:19:22;10.40;76.10
21387;DHT22;10854;45.922;6.716;2023-10-13T06:22:09;10.50;75.80
21387;DHT22;10854;45.922;6.716;2023-10-13T06:24:56;10.60;75.40
21387;DHT22;10854;45.922;6.716;2023-10-13T06:27:43;10.60;75.10
21387;DHT22;10854;45.922;6.716;2023-10-13T06:30:30;10.70;74.90
21387;DHT22;10854;45.922;6.716;2023-10-13T06:32:59;10.90;74.70
21387;DHT22;10854;45.922;6.716;2023-10-13T06:35:29;11.00;74.10
21387;DHT22;10854;45.922;6.716;2023-10-13T06:37:59;11.10;73.80
21387;DHT22;10854;45.922;6.716;2023-10-13T06:40:28;11.20;73.50
21387;DHT22;10854;45.922;6.716;2023-10-13T06:43:00;11.30;73.60
21387;DHT22;10854;45.922;6.716;2023-10-13T06:45:41;11.20;73.90
21387;DHT22;10854;45.922;6.716;2023-10-13T06:48:10;11.10;74.30
21387;DHT22;10854;45.922;6.716;2023-10-13T06:50:39;11.00;74.70
21387;DHT22;10854;45.922;6.716;2023-10-13T06:53:09;11.00;75.30
21387;DHT22;10854;45.922;6.716;2023-10-13T06:55:41;11.00;75.80
21387;DHT22;10854;45.922;6.716;2023-10-13T06:58:14;10.90;75.90
21387;DHT22;10854;45.922;6.716;2023-10-13T07:00:45;10.90;76.00
21387;DHT22;10854;45.922;6.716;2023-10-13T07:03:22;10.90;76.20
21387;DHT22;10854;45.922;6.716;2023-10-13T07:05:51;10.90;76.40
21387;DHT22;10854;45.922;6.716;2023-10-13T07:08:20;11.00;76.40
21387;DHT22;10854;45.922;6.716;2023-10-13T07:10:53;11.00;76.20
21387;DHT22;10854;45.922;6.716;2023-10-13T07:13:42;11.10;76.20
21387;DHT22;10854;45.922;6.716;2023-10-13T07:16:19;11.20;75.90
21387;DHT22;10854;45.922;6.716;2023-10-13T07:18:56;11.30;75.70
21387;DHT22;10854;45.922;6.716;2023-10-13T07:21:33;11.40;75.40
21387;DHT22;10854;45.922;6.716;2023-10-13T07:24:01;11.50;75.30
21387;DHT22;10854;45.922;6.716;2023-10-13T07:26:37;11.50;75.50
21387;DHT22;10854;45.922;6.716;2023-10-13T07:29:13;11.60;75.40
21387;DHT22;10854;45.922;6.716;2023-10-13T07:31:43;11.60;75.50
21387;DHT22;10854;45.922;6.716;2023-10-13T07:34:13;11.70;75.30
21387;DHT22;10854;45.922;6.716;2023-10-13T07:36:53;11.70;75.10
21387;DHT22;10854;45.922;6.716;2023-10-13T07:39:29;11.70;75.10
21387;DHT22;10854;45.922;6.716;2023-10-13T07:42:02;11.70;75.60
21387;DHT22;10854;45.922;6.716;2023-10-13T07:44:35;11.70;76.00
21387;DHT22;10854;45.922;6.716;2023-10-13T07:47:04;11.70;76.50
21387;DHT22;10854;45.922;6.716;2023-10-13T07:49:37;11.60;76.60
21387;DHT22;10854;45.922;6.716;2023-10-13T07:52:09;11.60;76.90
21387;DHT22;10854;45.922;6.716;2023-10-13T07:54:52;11.60;77.40
21387;DHT22;10854;45.922;6.716;2023-10-13T07:57:42;11.60;77.70
21387;DHT22;10854;45.922;6.716;2023-10-13T08:00:24;11.60;77.80
21387;DHT22;10854;45.922;6.716;2023-10-13T08:03:20;11.60;77.60
21387;DHT22;10854;45.922;6.716;2023-10-13T08:06:04;11.70;77.50
21387;DHT22;10854;45.922;6.716;2023-10-13T08:08:48;11.80;77.60
21387;DHT22;10854;45.922;6.716;2023-10-13T08:11:25;11.80;77.60
21387;DHT22;10854;45.922;6.716;2023-10-13T08:14:00;11.90;78.20
21387;DHT22;10854;45.922;6.716;2023-10-13T08:16:54;11.90;78.50
21387;DHT22;10854;45.922;6.716;2023-10-13T08:19:31;12.10;79.00
21387;DHT22;10854;45.922;6.716;2023-10-13T08:22:14;12.90;79.50
21387;DHT22;10854;45.922;6.716;2023-10-13T08:24:48;14.00;78.80
21387;DHT22;10854;45.922;6.716;2023-10-13T08:27:20;15.20;76.00
21387;DHT22;10854;45.922;6.716;2023-10-13T08:30:17;16.50;72.60
21387;DHT22;10854;45.922;6.716;2023-10-13T08:32:57;18.00;69.00
21387;DHT22;10854;45.922;6.716;2023-10-13T08:35:27;19.10;64.80
21387;DHT22;10854;45.922;6.716;2023-10-13T08:37:58;20.00;61.50
21387;DHT22;10854;45.922;6.716;2023-10-13T08:40:30;20.80;59.10
21387;DHT22;10854;45.922;6.716;2023-10-13T08:43:12;21.50;56.30
21387;DHT22;10854;45.922;6.716;2023-10-13T08:45:42;22.10;54.10
21387;DHT22;10854;45.922;6.716;2023-10-13T08:48:11;22.50;52.70
21387;DHT22;10854;45.922;6.716;2023-10-13T08:53:23;23.30;50.20
21387;DHT22;10854;45.922;6.716;2023-10-13T08:56:12;23.70;49.70
21387;DHT22;10854;45.922;6.716;2023-10-13T08:58:49;24.10;49.10
21387;DHT22;10854;45.922;6.716;2023-10-13T09:01:47;24.40;46.50
21387;DHT22;10854;45.922;6.716;2023-10-13T09:04:38;24.60;44.60
21387;DHT22;10854;45.922;6.716;2023-10-13T09:07:09;24.80;44.90
21387;DHT22;10854;45.922;6.716;2023-10-13T09:09:47;25.20;44.40
21387;DHT22;10854;45.922;6.716;2023-10-13T09:12:30;25.60;43.20
21387;DHT22;10854;45.922;6.716;2023-10-13T09:15:06;25.90;42.40
21387;DHT22;10854;45.922;6.716;2023-10-13T09:17:48;26.10;40.90
21387;DHT22;10854;45.922;6.716;2023-10-13T09:20:41;26.30;39.60
21387;DHT22;10854;45.922;6.716;2023-10-13T09:23:14;26.40;39.60
21387;DHT22;10854;45.922;6.716;2023-10-13T09:26:06;26.50;38.80
21387;DHT22;10854;45.922;6.716;2023-10-13T09:28:42;26.60;38.00
21387;DHT22;10854;45.922;6.716;2023-10-13T09:31:22;26.80;38.20
21387;DHT22;10854;45.922;6.716;2023-10-13T09:33:55;27.00;38.10
21387;DHT22;10854;45.922;6.716;2023-10-13T09:36:25;27.40;38.70
21387;DHT22;10854;45.922;6.716;2023-10-13T09:38:54;27.70;38.80
21387;DHT22;10854;45.922;6.716;2023-10-13T09:41:58;27.90;38.90
21387;DHT22;10854;45.922;6.716;2023-10-13T09:44:30;28.00;38.90
21387;DHT22;10854;45.922;6.716;2023-10-13T09:47:01;28.00;37.90
21387;DHT22;10854;45.922;6.716;2023-10-13T09:49:39;28.00;37.90
21387;DHT22;10854;45.922;6.716;2023-10-13T09:52:16;28.00;38.00
21387;DHT22;10854;45.922;6.716;2023-10-13T09:55:19;28.20;37.60
21387;DHT22;10854;45.922;6.716;2023-10-13T09:58:14;28.30;35.90
21387;DHT22;10854;45.922;6.716;2023-10-13T10:00:49;28.30;35.30
21387;DHT22;10854;45.922;6.716;2023-10-13T10:03:26;28.00;35.20
21387;DHT22;10854;45.922;6.716;2023-10-13T10:06:03;27.90;34.50
21387;DHT22;10854;45.922;6.716;2023-10-13T10:08:44;28.10;34.50
21387;DHT22;10854;45.922;6.716;2023-10-13T10:11:43;28.60;35.20
21387;DHT22;10854;45.922;6.716;2023-10-13T10:14:52;29.20;35.60
21387;DHT22;10854;45.922;6.716;2023-10-13T10:17:37;30.00;34.40
21387;DHT22;10854;45.922;6.716;2023-10-13T10:20:07;30.70;34.00
21387;DHT22;10854;45.922;6.716;2023-10-13T10:22:57;31.10;33.10
21387;DHT22;10854;45.922;6.716;2023-10-13T10:25:34;31.50;31.70
21387;DHT22;10854;45.922;6.716;2023-10-13T10:28:06;31.50;30.70
21387;DHT22;10854;45.922;6.716;2023-10-13T10:30:41;31.40;30.00
21387;DHT22;10854;45.922;6.716;2023-10-13T10:33:18;31.40;31.10
21387;DHT22;10854;45.922;6.716;2023-10-13T10:35:59;31.30;30.90
21387;DHT22;10854;45.922;6.716;2023-10-13T10:38:29;31.30;30.60
21387;DHT22;10854;45.922;6.716;2023-10-13T10:40:59;31.40;30.70
21387;DHT22;10854;45.922;6.716;2023-10-13T10:46:29;31.90;31.60
21387;DHT22;10854;45.922;6.716;2023-10-13T10:49:21;32.20;32.20
21387;DHT22;10854;45.922;6.716;2023-10-13T10:52:17;32.40;31.10
21387;DHT22;10854;45.922;6.716;2023-10-13T10:55:00;32.40;31.10
21387;DHT22;10854;45.922;6.716;2023-10-13T10:57:31;32.30;30.20
21387;DHT22;10854;45.922;6.716;2023-10-13T11:00:05;32.30;31.50
21387;DHT22;10854;45.922;6.716;2023-10-13T11:03:04;32.20;32.10
21387;DHT22;10854;45.922;6.716;2023-10-13T11:05:43;32.20;32.20
21387;DHT22;10854;45.922;6.716;2023-10-13T11:08:25;32.30;32.50
21387;DHT22;10854;45.922;6.716;2023-10-13T11:11:00;32.50;32.90
21387;DHT22;10854;45.922;6.716;2023-10-13T11:13:46;32.70;31.20
21387;DHT22;10854;45.922;6.716;2023-10-13T11:16:23;32.90;29.60
21387;DHT22;10854;45.922;6.716;2023-10-13T11:19:03;32.90;29.10
21387;DHT22;10854;45.922;6.716;2023-10-13T11:21:33;33.20;29.10
21387;DHT22;10854;45.922;6.716;2023-10-13T11:24:05;33.40;28.70
21387;DHT22;10854;45.922;6.716;2023-10-13T11:26:37;33.50;28.70
21387;DHT22;10854;45.922;6.716;2023-10-13T11:29:31;33.60;28.10
21387;DHT22;10854;45.922;6.716;2023-10-13T11:32:01;33.80;27.60
21387;DHT22;10854;45.922;6.716;2023-10-13T11:34:31;33.80;27.60
21387;DHT22;10854;45.922;6.716;2023-10-13T11:37:07;33.80;27.80
21387;DHT22;10854;45.922;6.716;2023-10-13T11:39:54;34.00;28.00
21387;DHT22;10854;45.922;6.716;2023-10-13T11:42:23;34.60;28.10
21387;DHT22;10854;45.922;6.716;2023-10-13T11:44:54;35.20;28.00
21387;DHT22;10854;45.922;6.716;2023-10-13T11:47:43;35.90;27.10
21387;DHT22;10854;45.922;6.716;2023-10-13T11:50:27;36.40;26.30
21387;DHT22;10854;45.922;6.716;2023-10-13T11:53:05;36.70;24.90
21387;DHT22;10854;45.922;6.716;2023-10-13T11:55:35;36.40;24.10
21387;DHT22;10854;45.922;6.716;2023-10-13T11:58:04;36.00;24.50
21387;DHT22;10854;45.922;6.716;2023-10-13T12:00:34;35.80;24.50
21387;DHT22;10854;45.922;6.716;2023-10-13T12:03:29;36.00;24.60
